createdAt,value
2023-01-13T00:00:14.338Z,4.56
2023-01-13T00:05:38.652Z,5.24
2023-01-13T00:10:48.401Z,5.24
2023-01-13T00:15:57.415Z,5.15
2023-01-13T00:21:02.992Z,4.81
2023-01-13T00:26:10.794Z,5.25
2023-01-13T00:31:17.496Z,5.10
2023-01-13T00:36:23.250Z,5.27
2023-01-13T00:41:29.345Z,5.36
2023-01-13T00:46:33.492Z,5.38
2023-01-13T00:51:37.671Z,4.54
2023-01-13T00:56:45.219Z,5.22
2023-01-13T01:01:51.851Z,5.45
2023-01-13T01:06:56.725Z,5.23
2023-01-13T01:12:03.826Z,5.71
2023-01-13T01:17:10.485Z,5.30
2023-01-13T01:22:16.844Z,4.87
2023-01-13T01:27:24.890Z,4.72
2023-01-13T01:32:31.702Z,4.74
2023-01-13T01:37:38.133Z,5.05
2023-01-13T01:43:03.261Z,4.86
2023-01-13T01:48:11.073Z,5.34
2023-01-13T01:53:22.084Z,5.82
2023-01-13T01:58:34.584Z,5.77
2023-01-13T02:03:45.696Z,6.14
2023-01-13T02:08:54.793Z,6.69
2023-01-13T02:14:02.555Z,6.87
2023-01-13T02:19:25.591Z,6.74
2023-01-13T02:25:07.726Z,6.85
2023-01-13T02:30:41.786Z,7.07
2023-01-13T02:35:54.367Z,6.94
2023-01-13T02:41:26.632Z,6.55
2023-01-13T02:46:38.359Z,6.93
2023-01-13T02:51:47.922Z,6.27
2023-01-13T02:56:57.271Z,6.70
2023-01-13T03:02:06.631Z,6.84
2023-01-13T03:07:19.532Z,7.09
2023-01-13T03:12:31.464Z,6.85
2023-01-13T03:17:44.021Z,6.73
2023-01-13T03:22:58.608Z,7.14
2023-01-13T03:28:07.160Z,6.98
2023-01-13T03:33:19.123Z,6.91
2023-01-13T03:38:32.288Z,6.93
2023-01-13T03:44:01.676Z,6.68
2023-01-13T03:49:13.684Z,6.08
2023-01-13T03:54:25.025Z,5.70
2023-01-13T03:59:34.702Z,5.90
2023-01-13T04:04:47.017Z,5.80
2023-01-13T04:09:56.768Z,6.13
2023-01-13T04:15:03.928Z,5.41
2023-01-13T04:20:13.707Z,5.48
2023-01-13T04:25:21.105Z,5.36
2023-01-13T04:30:28.757Z,5.36
2023-01-13T04:35:37.781Z,5.20
2023-01-13T04:40:44.941Z,5.65
2023-01-13T04:45:52.465Z,5.19
2023-01-13T04:50:59.939Z,5.23
2023-01-13T04:56:05.664Z,4.92
2023-01-13T05:01:11.390Z,5.63
2023-01-13T05:06:19.341Z,4.96
2023-01-13T05:11:42.750Z,4.84
2023-01-13T05:17:03.949Z,4.88
2023-01-13T05:22:29.053Z,4.88
2023-01-13T05:27:36.513Z,4.87
2023-01-13T05:32:44.148Z,5.17
2023-01-13T05:37:52.635Z,5.17
2023-01-13T05:43:25.018Z,5.84
2023-01-13T05:48:35.109Z,5.79
2023-01-13T05:53:43.669Z,5.68
2023-01-13T05:58:51.364Z,6.36
2023-01-13T06:03:57.958Z,6.46
2023-01-13T06:09:05.696Z,6.36
2023-01-13T06:14:12.431Z,6.34
2023-01-13T06:19:19.871Z,6.56
2023-01-13T06:24:28.093Z,5.80
2023-01-13T06:29:35.185Z,5.51
2023-01-13T06:34:43.875Z,5.80
2023-01-13T06:39:52.739Z,5.92
2023-01-13T06:45:00.520Z,5.52
2023-01-13T06:50:08.323Z,5.74
2023-01-13T06:55:16.564Z,5.69
2023-01-13T07:00:25.703Z,6.08
2023-01-13T07:05:33.094Z,5.89
2023-01-13T07:10:41.814Z,6.48
2023-01-13T07:16:00.029Z,7.03
2023-01-13T07:21:09.401Z,7.08
2023-01-13T07:26:19.012Z,7.05
2023-01-13T07:31:26.756Z,7.27
2023-01-13T07:36:34.421Z,7.36
2023-01-13T07:42:00.396Z,6.80
2023-01-13T07:47:09.328Z,6.16
2023-01-13T07:52:16.541Z,6.41
2023-01-13T07:57:24.427Z,6.86
2023-01-13T08:02:31.438Z,7.62
2023-01-13T08:07:37.894Z,7.84
2023-01-13T08:13:01.406Z,8.00
2023-01-13T08:18:05.576Z,7.69
2023-01-13T08:23:12.015Z,7.35
2023-01-13T08:28:19.195Z,6.98
2023-01-13T08:33:25.298Z,6.54
2023-01-13T08:38:32.408Z,6.61
2023-01-13T08:43:41.231Z,6.11
2023-01-13T08:48:48.559Z,6.58
2023-01-13T08:53:56.031Z,5.76
2023-01-13T08:59:05.133Z,6.12
2023-01-13T09:04:19.215Z,6.77
2023-01-13T09:09:28.410Z,6.85
2023-01-13T09:14:38.717Z,7.15
2023-01-13T09:19:46.147Z,7.32
2023-01-13T09:24:53.482Z,7.29
2023-01-13T09:30:02.404Z,7.59
2023-01-13T09:35:08.884Z,8.23
2023-01-13T09:40:23.024Z,8.33
2023-01-13T09:45:34.071Z,8.26
2023-01-13T09:51:02.131Z,8.90
2023-01-13T09:56:12.088Z,8.07
2023-01-13T10:01:29.532Z,8.07
2023-01-13T10:06:39.875Z,7.39
2023-01-13T10:12:06.126Z,7.57
2023-01-13T10:17:23.369Z,7.59
2023-01-13T10:22:54.701Z,7.72
2023-01-13T10:28:11.006Z,7.17
2023-01-13T10:33:29.562Z,7.23
2023-01-13T10:38:41.830Z,6.67
2023-01-13T10:44:00.047Z,6.72
2023-01-13T10:49:34.480Z,7.04
2023-01-13T10:54:53.232Z,6.94
2023-01-13T10:59:59.823Z,6.20
2023-01-13T11:05:24.695Z,6.58
2023-01-13T11:10:34.004Z,6.58
2023-01-13T11:15:47.038Z,7.09
2023-01-13T11:20:57.929Z,6.57
2023-01-13T11:26:11.374Z,6.78
2023-01-13T11:31:22.536Z,6.11
2023-01-13T11:36:34.571Z,6.99
2023-01-13T11:41:46.743Z,6.72
2023-01-13T11:46:54.456Z,6.36
2023-01-13T11:52:06.201Z,6.63
2023-01-13T11:57:38.041Z,5.92
2023-01-13T12:02:58.715Z,6.45
2023-01-13T12:08:19.872Z,6.78
2023-01-13T12:13:36.173Z,6.79
2023-01-13T12:19:16.913Z,6.66
2023-01-13T12:24:31.558Z,6.65
2023-01-13T12:29:40.541Z,6.15
2023-01-13T12:35:06.674Z,6.07
2023-01-13T12:40:33.860Z,5.86
2023-01-13T12:45:40.099Z,6.49
2023-01-13T12:50:47.116Z,6.68
2023-01-13T12:55:54.246Z,6.82
2023-01-13T13:01:02.428Z,6.19
2023-01-13T13:06:15.960Z,6.75
2023-01-13T13:11:58.743Z,7.21
2023-01-13T13:17:03.176Z,7.02
2023-01-13T13:22:39.261Z,6.84
2023-01-13T13:27:51.346Z,6.61
2023-01-13T13:33:07.535Z,6.80
2023-01-13T13:38:43.940Z,6.56
2023-01-13T13:44:07.283Z,6.67
2023-01-13T13:49:12.001Z,6.99
2023-01-13T13:54:19.429Z,6.79
2023-01-13T13:59:27.214Z,6.72
2023-01-13T14:04:33.733Z,6.72
2023-01-13T14:09:43.095Z,6.59
2023-01-13T14:14:49.671Z,6.15
2023-01-13T14:19:56.926Z,6.23
2023-01-13T14:25:02.103Z,6.19
2023-01-13T14:30:20.563Z,6.36
2023-01-13T14:35:24.779Z,6.23
2023-01-13T14:40:47.006Z,6.33
2023-01-13T14:46:00.745Z,5.76
2023-01-13T14:51:09.575Z,5.89
2023-01-13T14:56:43.558Z,5.76
2023-01-13T15:01:49.180Z,6.02
2023-01-13T15:06:55.468Z,5.87
2023-01-13T15:12:00.759Z,6.13
2023-01-13T15:17:19.479Z,6.25
2023-01-13T15:22:23.734Z,6.13
2023-01-13T15:27:28.011Z,5.88
2023-01-13T15:32:33.665Z,6.05
2023-01-13T15:37:38.158Z,5.75
2023-01-13T15:42:59.928Z,6.07
2023-01-13T15:48:06.098Z,6.41
2023-01-13T15:53:14.377Z,6.46
2023-01-13T15:58:22.020Z,6.09
2023-01-13T16:03:27.579Z,6.11
2023-01-13T16:08:34.276Z,6.56
2023-01-13T16:13:38.543Z,6.20
2023-01-13T16:18:44.103Z,5.88
2023-01-13T16:23:49.025Z,5.93
2023-01-13T16:28:55.701Z,6.32
2023-01-13T16:34:02.234Z,6.36
2023-01-13T16:39:19.642Z,6.46
2023-01-13T16:44:24.057Z,6.67
2023-01-13T16:49:29.545Z,6.60
2023-01-13T16:54:34.822Z,6.90
2023-01-13T16:59:38.994Z,6.09
2023-01-13T17:04:44.499Z,5.84
2023-01-13T17:09:49.210Z,6.10
2023-01-13T17:14:53.521Z,6.29
2023-01-13T17:19:59.960Z,6.10
2023-01-13T17:25:04.136Z,6.32
2023-01-13T17:30:09.677Z,5.97
2023-01-13T17:35:19.061Z,6.05
2023-01-13T17:40:23.630Z,6.32
2023-01-13T17:45:27.819Z,6.75
2023-01-13T17:50:34.494Z,6.50
2023-01-13T17:55:38.711Z,7.24
2023-01-13T18:00:43.242Z,6.74
2023-01-13T18:05:49.473Z,6.86
2023-01-13T18:10:54.836Z,7.15
2023-01-13T18:16:04.436Z,7.32
2023-01-13T18:21:36.537Z,6.24
2023-01-13T18:26:58.412Z,6.34
2023-01-13T18:32:02.627Z,5.95
2023-01-13T18:37:10.193Z,5.97
2023-01-13T18:42:31.874Z,5.82
2023-01-13T18:47:39.109Z,6.07
2023-01-13T18:52:44.989Z,5.87
2023-01-13T18:57:49.476Z,6.10
2023-01-13T19:08:12.365Z,6.56
2023-01-13T19:13:16.794Z,6.15
2023-01-13T19:18:22.444Z,6.13
2023-01-13T19:23:28.038Z,6.08
2023-01-13T19:28:32.431Z,6.10
2023-01-13T19:33:38.097Z,5.95
2023-01-13T19:38:43.704Z,6.16
2023-01-13T19:44:04.944Z,5.75
2023-01-13T19:49:10.462Z,5.54
2023-01-13T19:54:16.137Z,6.23
2023-01-13T19:59:29.113Z,5.58
2023-01-13T20:04:38.447Z,5.16
2023-01-13T20:09:45.403Z,5.50
2023-01-13T20:14:50.118Z,5.22
2023-01-13T20:19:54.539Z,5.22
2023-01-13T20:25:00.136Z,5.83
2023-01-13T20:30:04.526Z,5.25
2023-01-13T20:35:09.619Z,5.82
2023-01-13T20:40:18.455Z,5.74
2023-01-13T20:45:23.460Z,6.13
2023-01-13T20:50:27.698Z,5.93
2023-01-13T20:55:33.385Z,5.91
2023-01-13T21:00:37.657Z,5.80
2023-01-13T21:05:41.792Z,6.08
2023-01-13T21:10:47.511Z,6.47
2023-01-13T21:15:52.582Z,6.46
2023-01-13T21:21:11.747Z,6.35
2023-01-13T21:26:19.520Z,6.28
2023-01-13T21:31:25.806Z,6.13
2023-01-13T21:36:31.200Z,5.93
2023-01-13T21:41:54.190Z,5.82
2023-01-13T21:47:15.870Z,5.53
2023-01-13T21:52:20.099Z,5.68
2023-01-13T21:57:27.280Z,5.82
2023-01-13T22:02:33.071Z,5.24
2023-01-13T22:07:37.774Z,5.43
2023-01-13T22:12:44.742Z,4.70
2023-01-13T22:17:52.413Z,4.33
2023-01-13T22:22:56.719Z,4.51
2023-01-13T22:28:06.141Z,4.61
2023-01-13T22:33:10.775Z,4.55
2023-01-13T22:38:15.866Z,4.70
2023-01-13T22:43:21.485Z,4.73
2023-01-13T22:48:25.913Z,4.85
2023-01-13T22:53:30.589Z,4.74
2023-01-13T22:58:36.347Z,4.67
2023-01-13T23:03:42.086Z,4.37
2023-01-13T23:08:47.461Z,4.43
2023-01-13T23:13:58.686Z,4.32
2023-01-13T23:19:03.163Z,4.60
2023-01-13T23:24:08.684Z,4.16
2023-01-13T23:29:14.865Z,4.53
2023-01-13T23:34:19.200Z,4.39
2023-01-13T23:39:24.652Z,4.75
2023-01-13T23:44:30.645Z,4.63
2023-01-13T23:49:34.617Z,5.10
2023-01-13T23:54:39.097Z,4.75
2023-01-13T23:59:45.089Z,4.47
